Rocky River, Ohio
Current Conditions -  °F | °C
As of 10:04 AM on Saturday 22 Nov 2014 (Local Time) from KCLE Reporting Station
Light Rain Light Rain  
Wind Chill: 26°   Ceiling: 3800
Heat Index: 35°   Visibility: 9mi
Dew Point: 32°   Wind: 15mph
Humidity: 89%   Direction: 190°S
Pressure: 30.19"   Gusts: 24mph
Location:  41.47°N, 81.85°W
Report Text: KCLE 221504Z 19013G21KT 9SM -RA SCT030 OVC038 02/00 A3019 RMK AO2 P0000 T00170000 $
Loading
Personal Weather Stations






























Interactive Weather Map New forecast layout! Learn more

10-Day Weather Forecast

Advertisements
Track Severe Weather on mobile